sensor_id;sensor_type;location;lat;lon;timestamp;P1;durP1;ratioP1;P2;durP2;ratioP2
51304;SDS011;37392;50.964;6.952;2023-02-28T00:00:35;7.80;;;2.72;;
51304;SDS011;37392;50.964;6.952;2023-02-28T00:03:01;9.95;;;2.72;;
51304;SDS011;37392;50.964;6.952;2023-02-28T00:05:27;11.40;;;2.65;;
51304;SDS011;37392;50.964;6.952;2023-02-28T00:07:54;7.30;;;2.75;;
51304;SDS011;37392;50.964;6.952;2023-02-28T00:10:23;7.18;;;2.58;;
51304;SDS011;37392;50.964;6.952;2023-02-28T00:12:53;9.60;;;3.20;;
51304;SDS011;37392;50.964;6.952;2023-02-28T00:15:22;5.97;;;2.50;;
51304;SDS011;37392;50.964;6.952;2023-02-28T00:17:48;5.72;;;3.10;;
51304;SDS011;37392;50.964;6.952;2023-02-28T00:20:14;8.95;;;3.30;;
51304;SDS011;37392;50.964;6.952;2023-02-28T00:22:42;5.47;;;2.38;;
51304;SDS011;37392;50.964;6.952;2023-02-28T00:25:10;5.35;;;2.75;;
51304;SDS011;37392;50.964;6.952;2023-02-28T00:27:39;6.82;;;2.80;;
51304;SDS011;37392;50.964;6.952;2023-02-28T00:30:05;10.18;;;3.33;;
51304;SDS011;37392;50.964;6.952;2023-02-28T00:32:34;11.00;;;3.45;;
51304;SDS011;37392;50.964;6.952;2023-02-28T00:35:01;9.05;;;3.03;;
51304;SDS011;37392;50.964;6.952;2023-02-28T00:37:27;6.57;;;3.30;;
51304;SDS011;37392;50.964;6.952;2023-02-28T00:39:53;9.35;;;2.67;;
51304;SDS011;37392;50.964;6.952;2023-02-28T00:42:18;7.60;;;2.58;;
51304;SDS011;37392;50.964;6.952;2023-02-28T00:44:44;4.32;;;2.63;;
51304;SDS011;37392;50.964;6.952;2023-02-28T00:47:09;8.73;;;2.40;;
51304;SDS011;37392;50.964;6.952;2023-02-28T00:49:35;6.80;;;2.10;;
51304;SDS011;37392;50.964;6.952;2023-02-28T00:52:02;4.63;;;2.15;;
51304;SDS011;37392;50.964;6.952;2023-02-28T00:54:27;6.95;;;2.75;;
51304;SDS011;37392;50.964;6.952;2023-02-28T00:56:53;5.53;;;2.45;;
51304;SDS011;37392;50.964;6.952;2023-02-28T00:59:18;7.10;;;2.90;;
51304;SDS011;37392;50.964;6.952;2023-02-28T01:01:45;5.35;;;2.40;;
51304;SDS011;37392;50.964;6.952;2023-02-28T01:04:11;4.13;;;2.65;;
51304;SDS011;37392;50.964;6.952;2023-02-28T01:06:38;8.93;;;2.95;;
51304;SDS011;37392;50.964;6.952;2023-02-28T01:09:04;7.28;;;2.20;;
51304;SDS011;37392;50.964;6.952;2023-02-28T01:11:31;4.60;;;2.15;;
51304;SDS011;37392;50.964;6.952;2023-02-28T01:13:58;6.97;;;2.88;;
51304;SDS011;37392;50.964;6.952;2023-02-28T01:16:24;11.55;;;2.25;;
51304;SDS011;37392;50.964;6.952;2023-02-28T01:18:50;8.68;;;3.00;;
51304;SDS011;37392;50.964;6.952;2023-02-28T01:21:17;6.60;;;3.00;;
51304;SDS011;37392;50.964;6.952;2023-02-28T01:23:45;8.30;;;2.50;;
51304;SDS011;37392;50.964;6.952;2023-02-28T01:28:46;4.88;;;2.95;;
51304;SDS011;37392;50.964;6.952;2023-02-28T01:31:13;7.65;;;2.80;;
51304;SDS011;37392;50.964;6.952;2023-02-28T01:33:39;5.97;;;2.85;;
51304;SDS011;37392;50.964;6.952;2023-02-28T01:36:06;4.22;;;2.35;;
51304;SDS011;37392;50.964;6.952;2023-02-28T01:38:38;7.30;;;2.72;;
51304;SDS011;37392;50.964;6.952;2023-02-28T01:41:05;6.47;;;2.85;;
51304;SDS011;37392;50.964;6.952;2023-02-28T01:43:51;6.00;;;2.28;;
51304;SDS011;37392;50.964;6.952;2023-02-28T01:46:19;8.32;;;2.42;;
51304;SDS011;37392;50.964;6.952;2023-02-28T01:48:47;4.63;;;2.28;;
51304;SDS011;37392;50.964;6.952;2023-02-28T01:51:30;3.58;;;2.30;;
51304;SDS011;37392;50.964;6.952;2023-02-28T01:54:05;5.32;;;2.20;;
51304;SDS011;37392;50.964;6.952;2023-02-28T01:56:38;6.88;;;2.35;;
51304;SDS011;37392;50.964;6.952;2023-02-28T01:59:31;3.97;;;2.47;;
51304;SDS011;37392;50.964;6.952;2023-02-28T02:02:05;7.63;;;2.58;;
51304;SDS011;37392;50.964;6.952;2023-02-28T02:04:37;3.88;;;2.15;;
51304;SDS011;37392;50.964;6.952;2023-02-28T02:07:11;8.80;;;2.75;;
51304;SDS011;37392;50.964;6.952;2023-02-28T02:09:39;5.55;;;2.65;;
51304;SDS011;37392;50.964;6.952;2023-02-28T02:12:09;3.60;;;2.22;;
51304;SDS011;37392;50.964;6.952;2023-02-28T02:15:12;8.13;;;2.30;;
51304;SDS011;37392;50.964;6.952;2023-02-28T02:18:29;2.88;;;2.15;;
51304;SDS011;37392;50.964;6.952;2023-02-28T02:24:16;10.48;;;3.40;;
51304;SDS011;37392;50.964;6.952;2023-02-28T02:27:18;12.25;;;2.92;;
51304;SDS011;37392;50.964;6.952;2023-02-28T02:36:02;5.80;;;2.45;;
51304;SDS011;37392;50.964;6.952;2023-02-28T02:38:47;6.60;;;2.50;;
51304;SDS011;37392;50.964;6.952;2023-02-28T02:44:04;3.45;;;2.58;;
51304;SDS011;37392;50.964;6.952;2023-02-28T02:46:38;4.80;;;1.92;;
51304;SDS011;37392;50.964;6.952;2023-02-28T02:49:09;5.20;;;2.17;;
51304;SDS011;37392;50.964;6.952;2023-02-28T02:51:42;5.57;;;2.40;;
51304;SDS011;37392;50.964;6.952;2023-02-28T02:54:28;4.13;;;1.92;;
51304;SDS011;37392;50.964;6.952;2023-02-28T02:57:10;8.45;;;2.20;;
51304;SDS011;37392;50.964;6.952;2023-02-28T02:59:48;7.60;;;2.40;;
51304;SDS011;37392;50.964;6.952;2023-02-28T03:02:16;8.10;;;2.55;;
51304;SDS011;37392;50.964;6.952;2023-02-28T03:04:45;11.20;;;2.35;;
51304;SDS011;37392;50.964;6.952;2023-02-28T03:07:15;5.82;;;2.20;;
51304;SDS011;37392;50.964;6.952;2023-02-28T03:09:49;5.45;;;2.67;;
51304;SDS011;37392;50.964;6.952;2023-02-28T03:12:19;5.90;;;2.60;;
51304;SDS011;37392;50.964;6.952;2023-02-28T03:15:35;4.72;;;2.25;;
51304;SDS011;37392;50.964;6.952;2023-02-28T03:23:23;6.15;;;2.42;;
51304;SDS011;37392;50.964;6.952;2023-02-28T03:26:07;7.57;;;2.25;;
51304;SDS011;37392;50.964;6.952;2023-02-28T03:31:35;9.02;;;2.20;;
51304;SDS011;37392;50.964;6.952;2023-02-28T03:34:07;3.95;;;2.53;;
51304;SDS011;37392;50.964;6.952;2023-02-28T03:36:51;7.65;;;2.70;;
51304;SDS011;37392;50.964;6.952;2023-02-28T03:39:29;7.15;;;3.17;;
51304;SDS011;37392;50.964;6.952;2023-02-28T03:42:22;5.35;;;2.17;;
51304;SDS011;37392;50.964;6.952;2023-02-28T03:49:51;5.65;;;1.92;;
51304;SDS011;37392;50.964;6.952;2023-02-28T03:52:25;3.28;;;2.40;;
51304;SDS011;37392;50.964;6.952;2023-02-28T03:54:58;3.33;;;2.40;;
51304;SDS011;37392;50.964;6.952;2023-02-28T04:00:25;5.20;;;2.40;;
51304;SDS011;37392;50.964;6.952;2023-02-28T04:02:57;4.10;;;2.20;;
51304;SDS011;37392;50.964;6.952;2023-02-28T04:05:23;6.47;;;3.20;;
51304;SDS011;37392;50.964;6.952;2023-02-28T04:07:49;5.20;;;2.58;;
51304;SDS011;37392;50.964;6.952;2023-02-28T04:10:16;6.25;;;2.65;;
51304;SDS011;37392;50.964;6.952;2023-02-28T04:12:42;6.32;;;2.60;;
51304;SDS011;37392;50.964;6.952;2023-02-28T04:15:07;4.20;;;2.33;;
51304;SDS011;37392;50.964;6.952;2023-02-28T04:17:33;7.70;;;3.00;;
51304;SDS011;37392;50.964;6.952;2023-02-28T04:19:59;6.00;;;2.85;;
51304;SDS011;37392;50.964;6.952;2023-02-28T04:22:24;9.25;;;2.58;;
51304;SDS011;37392;50.964;6.952;2023-02-28T04:24:52;9.95;;;2.50;;
51304;SDS011;37392;50.964;6.952;2023-02-28T04:27:21;10.85;;;3.10;;
51304;SDS011;37392;50.964;6.952;2023-02-28T04:29:47;9.63;;;2.95;;
51304;SDS011;37392;50.964;6.952;2023-02-28T04:32:12;10.18;;;3.15;;
51304;SDS011;37392;50.964;6.952;2023-02-28T04:34:38;4.05;;;2.50;;
51304;SDS011;37392;50.964;6.952;2023-02-28T04:37:04;4.57;;;2.75;;
51304;SDS011;37392;50.964;6.952;2023-02-28T04:39:34;4.97;;;2.83;;
51304;SDS011;37392;50.964;6.952;2023-02-28T04:44:26;7.40;;;3.35;;
51304;SDS011;37392;50.964;6.952;2023-02-28T04:46:52;6.60;;;3.53;;
51304;SDS011;37392;50.964;6.952;2023-02-28T04:49:17;7.75;;;3.25;;
51304;SDS011;37392;50.964;6.952;2023-02-28T04:51:43;7.10;;;3.00;;
51304;SDS011;37392;50.964;6.952;2023-02-28T04:54:09;9.07;;;2.95;;
51304;SDS011;37392;50.964;6.952;2023-02-28T04:56:35;7.00;;;3.70;;
51304;SDS011;37392;50.964;6.952;2023-02-28T04:59:00;5.45;;;3.42;;
51304;SDS011;37392;50.964;6.952;2023-02-28T05:01:26;11.13;;;3.25;;
51304;SDS011;37392;50.964;6.952;2023-02-28T05:03:55;10.70;;;2.92;;
51304;SDS011;37392;50.964;6.952;2023-02-28T05:06:23;6.95;;;2.95;;
51304;SDS011;37392;50.964;6.952;2023-02-28T05:08:51;9.55;;;3.20;;
51304;SDS011;37392;50.964;6.952;2023-02-28T05:11:27;5.80;;;2.55;;
51304;SDS011;37392;50.964;6.952;2023-02-28T05:13:59;8.20;;;3.42;;
51304;SDS011;37392;50.964;6.952;2023-02-28T05:16:30;4.75;;;2.97;;
51304;SDS011;37392;50.964;6.952;2023-02-28T05:18:56;6.38;;;3.00;;
51304;SDS011;37392;50.964;6.952;2023-02-28T05:21:32;7.78;;;2.83;;
51304;SDS011;37392;50.964;6.952;2023-02-28T05:24:06;6.70;;;2.78;;
51304;SDS011;37392;50.964;6.952;2023-02-28T05:26:37;3.22;;;2.30;;
51304;SDS011;37392;50.964;6.952;2023-02-28T05:29:06;7.97;;;3.45;;
51304;SDS011;37392;50.964;6.952;2023-02-28T05:31:31;10.35;;;3.95;;
51304;SDS011;37392;50.964;6.952;2023-02-28T05:33:58;6.43;;;2.38;;
51304;SDS011;37392;50.964;6.952;2023-02-28T05:36:23;4.80;;;2.60;;
51304;SDS011;37392;50.964;6.952;2023-02-28T05:38:49;6.93;;;3.17;;
51304;SDS011;37392;50.964;6.952;2023-02-28T05:41:16;5.18;;;3.08;;
51304;SDS011;37392;50.964;6.952;2023-02-28T05:43:44;8.15;;;3.17;;
51304;SDS011;37392;50.964;6.952;2023-02-28T05:46:10;10.00;;;3.67;;
51304;SDS011;37392;50.964;6.952;2023-02-28T05:48:37;3.50;;;2.72;;
51304;SDS011;37392;50.964;6.952;2023-02-28T05:51:05;7.38;;;2.92;;
51304;SDS011;37392;50.964;6.952;2023-02-28T05:53:32;12.68;;;3.17;;
51304;SDS011;37392;50.964;6.952;2023-02-28T05:55:58;6.10;;;2.85;;
51304;SDS011;37392;50.964;6.952;2023-02-28T05:58:24;8.35;;;2.58;;
51304;SDS011;37392;50.964;6.952;2023-02-28T06:00:54;3.67;;;2.20;;
51304;SDS011;37392;50.964;6.952;2023-02-28T06:03:19;11.50;;;4.55;;
51304;SDS011;37392;50.964;6.952;2023-02-28T06:05:45;11.95;;;2.28;;
51304;SDS011;37392;50.964;6.952;2023-02-28T06:08:10;6.07;;;2.75;;
51304;SDS011;37392;50.964;6.952;2023-02-28T06:10:36;6.93;;;2.72;;
51304;SDS011;37392;50.964;6.952;2023-02-28T06:13:02;7.85;;;2.53;;
51304;SDS011;37392;50.964;6.952;2023-02-28T06:15:29;9.35;;;2.67;;
51304;SDS011;37392;50.964;6.952;2023-02-28T06:17:55;3.50;;;2.72;;
51304;SDS011;37392;50.964;6.952;2023-02-28T06:20:23;6.47;;;2.90;;
51304;SDS011;37392;50.964;6.952;2023-02-28T06:22:54;3.92;;;2.35;;
51304;SDS011;37392;50.964;6.952;2023-02-28T06:25:23;8.82;;;2.53;;
51304;SDS011;37392;50.964;6.952;2023-02-28T06:27:51;4.65;;;2.67;;
51304;SDS011;37392;50.964;6.952;2023-02-28T06:30:17;6.88;;;2.35;;
51304;SDS011;37392;50.964;6.952;2023-02-28T06:32:42;5.75;;;2.55;;
51304;SDS011;37392;50.964;6.952;2023-02-28T06:35:08;7.97;;;3.45;;
51304;SDS011;37392;50.964;6.952;2023-02-28T06:37:34;8.23;;;3.20;;
51304;SDS011;37392;50.964;6.952;2023-02-28T06:40:00;6.85;;;2.58;;
51304;SDS011;37392;50.964;6.952;2023-02-28T06:42:25;12.88;;;3.90;;
51304;SDS011;37392;50.964;6.952;2023-02-28T06:44:54;7.78;;;3.20;;
51304;SDS011;37392;50.964;6.952;2023-02-28T06:47:20;6.97;;;2.67;;
51304;SDS011;37392;50.964;6.952;2023-02-28T06:49:46;7.53;;;2.30;;
51304;SDS011;37392;50.964;6.952;2023-02-28T06:52:12;5.53;;;2.33;;
51304;SDS011;37392;50.964;6.952;2023-02-28T06:54:37;7.72;;;2.35;;
51304;SDS011;37392;50.964;6.952;2023-02-28T06:57:03;6.05;;;2.80;;
51304;SDS011;37392;50.964;6.952;2023-02-28T06:59:28;5.47;;;2.28;;
51304;SDS011;37392;50.964;6.952;2023-02-28T07:01:54;6.43;;;2.90;;
51304;SDS011;37392;50.964;6.952;2023-02-28T07:04:20;7.63;;;2.53;;
51304;SDS011;37392;50.964;6.952;2023-02-28T07:06:55;8.65;;;2.83;;
51304;SDS011;37392;50.964;6.952;2023-02-28T07:09:26;17.15;;;2.85;;
51304;SDS011;37392;50.964;6.952;2023-02-28T07:11:54;11.13;;;3.08;;
51304;SDS011;37392;50.964;6.952;2023-02-28T07:14:20;6.10;;;2.90;;
51304;SDS011;37392;50.964;6.952;2023-02-28T07:16:46;7.13;;;2.53;;
51304;SDS011;37392;50.964;6.952;2023-02-28T07:19:12;5.03;;;2.83;;
51304;SDS011;37392;50.964;6.952;2023-02-28T07:21:38;7.55;;;2.47;;
51304;SDS011;37392;50.964;6.952;2023-02-28T07:24:03;4.55;;;2.38;;
51304;SDS011;37392;50.964;6.952;2023-02-28T07:26:29;6.32;;;2.83;;
51304;SDS011;37392;50.964;6.952;2023-02-28T07:28:55;5.07;;;2.78;;
51304;SDS011;37392;50.964;6.952;2023-02-28T07:31:20;5.90;;;2.72;;
51304;SDS011;37392;50.964;6.952;2023-02-28T07:33:46;5.03;;;2.97;;
51304;SDS011;37392;50.964;6.952;2023-02-28T07:36:13;5.78;;;2.92;;
51304;SDS011;37392;50.964;6.952;2023-02-28T07:38:44;4.00;;;2.60;;
51304;SDS011;37392;50.964;6.952;2023-02-28T07:41:18;3.45;;;2.63;;
51304;SDS011;37392;50.964;6.952;2023-02-28T07:43:46;4.32;;;2.05;;
51304;SDS011;37392;50.964;6.952;2023-02-28T07:46:13;5.40;;;2.38;;
51304;SDS011;37392;50.964;6.952;2023-02-28T07:48:41;9.20;;;2.10;;
51304;SDS011;37392;50.964;6.952;2023-02-28T07:51:07;7.03;;;2.53;;
51304;SDS011;37392;50.964;6.952;2023-02-28T07:53:33;3.85;;;2.55;;
51304;SDS011;37392;50.964;6.952;2023-02-28T07:55:59;6.55;;;2.33;;
51304;SDS011;37392;50.964;6.952;2023-02-28T07:58:26;5.30;;;2.10;;
51304;SDS011;37392;50.964;6.952;2023-02-28T08:00:53;4.90;;;2.00;;
51304;SDS011;37392;50.964;6.952;2023-02-28T08:03:20;5.93;;;2.03;;
51304;SDS011;37392;50.964;6.952;2023-02-28T08:05:47;3.38;;;1.92;;
51304;SDS011;37392;50.964;6.952;2023-02-28T08:08:15;4.65;;;2.47;;
51304;SDS011;37392;50.964;6.952;2023-02-28T08:10:41;4.18;;;2.20;;
51304;SDS011;37392;50.964;6.952;2023-02-28T08:13:07;7.88;;;2.08;;
51304;SDS011;37392;50.964;6.952;2023-02-28T08:15:33;3.72;;;1.98;;
51304;SDS011;37392;50.964;6.952;2023-02-28T08:17:58;6.25;;;2.08;;
51304;SDS011;37392;50.964;6.952;2023-02-28T08:20:25;2.85;;;2.05;;
51304;SDS011;37392;50.964;6.952;2023-02-28T08:22:51;4.10;;;2.40;;
51304;SDS011;37392;50.964;6.952;2023-02-28T08:25:17;9.77;;;2.63;;
51304;SDS011;37392;50.964;6.952;2023-02-28T08:27:43;4.43;;;2.00;;
51304;SDS011;37392;50.964;6.952;2023-02-28T08:30:13;9.70;;;2.33;;
51304;SDS011;37392;50.964;6.952;2023-02-28T08:32:40;4.45;;;2.17;;
51304;SDS011;37392;50.964;6.952;2023-02-28T08:35:06;5.80;;;2.10;;
51304;SDS011;37392;50.964;6.952;2023-02-28T08:37:34;5.25;;;2.10;;
51304;SDS011;37392;50.964;6.952;2023-02-28T08:39:59;3.42;;;2.17;;
51304;SDS011;37392;50.964;6.952;2023-02-28T08:42:25;2.58;;;1.70;;
51304;SDS011;37392;50.964;6.952;2023-02-28T08:44:50;3.22;;;1.90;;
51304;SDS011;37392;50.964;6.952;2023-02-28T08:47:16;2.58;;;2.00;;
51304;SDS011;37392;50.964;6.952;2023-02-28T08:49:42;2.45;;;1.83;;
51304;SDS011;37392;50.964;6.952;2023-02-28T08:52:07;3.33;;;1.70;;
51304;SDS011;37392;50.964;6.952;2023-02-28T08:54:33;2.88;;;1.67;;
51304;SDS011;37392;50.964;6.952;2023-02-28T08:57:01;2.80;;;1.90;;
51304;SDS011;37392;50.964;6.952;2023-02-28T08:59:27;3.42;;;1.60;;
51304;SDS011;37392;50.964;6.952;2023-02-28T09:01:53;1.85;;;1.63;;
51304;SDS011;37392;50.964;6.952;2023-02-28T09:04:18;2.22;;;1.63;;
51304;SDS011;37392;50.964;6.952;2023-02-28T09:06:44;3.20;;;1.50;;
51304;SDS011;37392;50.964;6.952;2023-02-28T09:09:09;4.82;;;2.42;;
51304;SDS011;37392;50.964;6.952;2023-02-28T09:11:36;4.15;;;1.67;;
51304;SDS011;37392;50.964;6.952;2023-02-28T09:14:02;2.63;;;1.70;;
51304;SDS011;37392;50.964;6.952;2023-02-28T09:16:31;3.92;;;1.50;;
51304;SDS011;37392;50.964;6.952;2023-02-28T09:18:57;5.10;;;2.15;;
51304;SDS011;37392;50.964;6.952;2023-02-28T09:21:23;2.38;;;1.42;;
51304;SDS011;37392;50.964;6.952;2023-02-28T09:23:49;5.07;;;1.35;;
51304;SDS011;37392;50.964;6.952;2023-02-28T09:26:25;3.13;;;1.60;;
51304;SDS011;37392;50.964;6.952;2023-02-28T09:28:52;2.97;;;1.58;;
51304;SDS011;37392;50.964;6.952;2023-02-28T09:31:23;6.78;;;1.90;;
51304;SDS011;37392;50.964;6.952;2023-02-28T09:33:51;3.83;;;1.73;;
51304;SDS011;37392;50.964;6.952;2023-02-28T09:36:21;3.75;;;1.60;;
51304;SDS011;37392;50.964;6.952;2023-02-28T09:38:49;2.88;;;1.83;;
51304;SDS011;37392;50.964;6.952;2023-02-28T09:41:25;3.03;;;1.70;;
51304;SDS011;37392;50.964;6.952;2023-02-28T09:43:55;4.85;;;1.77;;
51304;SDS011;37392;50.964;6.952;2023-02-28T09:46:29;9.15;;;1.48;;
51304;SDS011;37392;50.964;6.952;2023-02-28T09:49:06;3.05;;;1.85;;
51304;SDS011;37392;50.964;6.952;2023-02-28T09:54:41;5.38;;;1.88;;
51304;SDS011;37392;50.964;6.952;2023-02-28T10:02:46;3.20;;;1.80;;
51304;SDS011;37392;50.964;6.952;2023-02-28T10:05:41;2.95;;;1.75;;
51304;SDS011;37392;50.964;6.952;2023-02-28T10:10:57;10.43;;;2.00;;
51304;SDS011;37392;50.964;6.952;2023-02-28T10:16:37;7.72;;;1.60;;
51304;SDS011;37392;50.964;6.952;2023-02-28T10:19:11;3.63;;;1.42;;
51304;SDS011;37392;50.964;6.952;2023-02-28T10:21:50;2.15;;;1.30;;
51304;SDS011;37392;50.964;6.952;2023-02-28T10:24:41;3.45;;;2.05;;
51304;SDS011;37392;50.964;6.952;2023-02-28T10:29:49;3.00;;;2.03;;
51304;SDS011;37392;50.964;6.952;2023-02-28T10:32:19;1.95;;;1.33;;
51304;SDS011;37392;50.964;6.952;2023-02-28T10:37:45;15.45;;;3.83;;
51304;SDS011;37392;50.964;6.952;2023-02-28T10:45:23;2.60;;;1.60;;
51304;SDS011;37392;50.964;6.952;2023-02-28T11:01:41;4.45;;;1.92;;
51304;SDS011;37392;50.964;6.952;2023-02-28T11:06:55;3.38;;;2.10;;
51304;SDS011;37392;50.964;6.952;2023-02-28T11:09:28;3.55;;;2.13;;
51304;SDS011;37392;50.964;6.952;2023-02-28T11:12:04;5.80;;;2.20;;
51304;SDS011;37392;50.964;6.952;2023-02-28T11:14:35;4.30;;;2.30;;
51304;SDS011;37392;50.964;6.952;2023-02-28T11:17:14;2.83;;;2.10;;
51304;SDS011;37392;50.964;6.952;2023-02-28T11:19:47;2.47;;;2.03;;
51304;SDS011;37392;50.964;6.952;2023-02-28T11:22:19;3.80;;;2.03;;
51304;SDS011;37392;50.964;6.952;2023-02-28T11:24:52;4.07;;;2.58;;
51304;SDS011;37392;50.964;6.952;2023-02-28T11:29:55;6.88;;;2.20;;
51304;SDS011;37392;50.964;6.952;2023-02-28T11:32:22;4.18;;;2.67;;
51304;SDS011;37392;50.964;6.952;2023-02-28T11:40:00;5.40;;;2.53;;
51304;SDS011;37392;50.964;6.952;2023-02-28T11:51:19;11.55;;;3.22;;
51304;SDS011;37392;50.964;6.952;2023-02-28T12:23:00;4.75;;;2.25;;
51304;SDS011;37392;50.964;6.952;2023-02-28T12:25:56;5.15;;;2.50;;
51304;SDS011;37392;50.964;6.952;2023-02-28T12:28:48;2.85;;;2.15;;
51304;SDS011;37392;50.964;6.952;2023-02-28T12:33:52;3.85;;;2.53;;
51304;SDS011;37392;50.964;6.952;2023-02-28T12:36:24;4.93;;;3.35;;
51304;SDS011;37392;50.964;6.952;2023-02-28T12:42:10;4.95;;;2.88;;
51304;SDS011;37392;50.964;6.952;2023-02-28T12:44:44;5.90;;;2.95;;
51304;SDS011;37392;50.964;6.952;2023-02-28T12:47:15;3.95;;;2.60;;
51304;SDS011;37392;50.964;6.952;2023-02-28T12:49:48;6.47;;;2.75;;
51304;SDS011;37392;50.964;6.952;2023-02-28T12:52:23;4.03;;;2.35;;
51304;SDS011;37392;50.964;6.952;2023-02-28T13:09:56;6.00;;;2.90;;
51304;SDS011;37392;50.964;6.952;2023-02-28T13:12:25;4.13;;;2.78;;
51304;SDS011;37392;50.964;6.952;2023-02-28T13:15:00;4.88;;;2.75;;
51304;SDS011;37392;50.964;6.952;2023-02-28T13:17:38;8.27;;;3.20;;
51304;SDS011;37392;50.964;6.952;2023-02-28T13:20:14;6.30;;;3.22;;
51304;SDS011;37392;50.964;6.952;2023-02-28T13:22:49;3.80;;;2.75;;
51304;SDS011;37392;50.964;6.952;2023-02-28T13:27:47;8.63;;;3.55;;
51304;SDS011;37392;50.964;6.952;2023-02-28T13:33:34;4.03;;;2.63;;
51304;SDS011;37392;50.964;6.952;2023-02-28T13:36:25;4.82;;;3.00;;
51304;SDS011;37392;50.964;6.952;2023-02-28T13:42:22;4.68;;;2.80;;
51304;SDS011;37392;50.964;6.952;2023-02-28T13:50:29;8.40;;;2.90;;
51304;SDS011;37392;50.964;6.952;2023-02-28T14:07:31;6.72;;;2.63;;
51304;SDS011;37392;50.964;6.952;2023-02-28T14:10:06;7.97;;;3.75;;
51304;SDS011;37392;50.964;6.952;2023-02-28T14:15:27;5.80;;;3.03;;
51304;SDS011;37392;50.964;6.952;2023-02-28T14:18:03;4.57;;;3.25;;
51304;SDS011;37392;50.964;6.952;2023-02-28T14:20:54;5.70;;;3.20;;
51304;SDS011;37392;50.964;6.952;2023-02-28T14:23:43;5.65;;;3.58;;
51304;SDS011;37392;50.964;6.952;2023-02-28T14:29:35;5.40;;;3.20;;
51304;SDS011;37392;50.964;6.952;2023-02-28T14:37:51;6.85;;;3.72;;
51304;SDS011;37392;50.964;6.952;2023-02-28T14:40:28;6.40;;;3.58;;
51304;SDS011;37392;50.964;6.952;2023-02-28T14:42:59;5.83;;;3.23;;
51304;SDS011;37392;50.964;6.952;2023-02-28T14:45:31;10.55;;;3.55;;
51304;SDS011;37392;50.964;6.952;2023-02-28T14:47:59;4.90;;;3.00;;
51304;SDS011;37392;50.964;6.952;2023-02-28T14:50:27;7.72;;;3.38;;
51304;SDS011;37392;50.964;6.952;2023-02-28T14:53:00;8.60;;;2.95;;
51304;SDS011;37392;50.964;6.952;2023-02-28T14:55:46;5.50;;;3.10;;
51304;SDS011;37392;50.964;6.952;2023-02-28T14:58:19;5.95;;;3.33;;
51304;SDS011;37392;50.964;6.952;2023-02-28T15:00:59;17.40;;;4.03;;
51304;SDS011;37392;50.964;6.952;2023-02-28T15:03:34;6.10;;;3.17;;
51304;SDS011;37392;50.964;6.952;2023-02-28T15:06:02;9.05;;;3.70;;
51304;SDS011;37392;50.964;6.952;2023-02-28T15:08:30;13.20;;;3.85;;
51304;SDS011;37392;50.964;6.952;2023-02-28T15:19:14;5.63;;;3.47;;
51304;SDS011;37392;50.964;6.952;2023-02-28T15:21:55;8.85;;;3.30;;
51304;SDS011;37392;50.964;6.952;2023-02-28T15:24:37;5.65;;;3.88;;
51304;SDS011;37392;50.964;6.952;2023-02-28T15:27:09;9.18;;;3.33;;
51304;SDS011;37392;50.964;6.952;2023-02-28T15:29:47;5.28;;;3.35;;
51304;SDS011;37392;50.964;6.952;2023-02-28T15:34:55;12.05;;;4.07;;
51304;SDS011;37392;50.964;6.952;2023-02-28T15:39:51;6.75;;;3.95;;
51304;SDS011;37392;50.964;6.952;2023-02-28T15:42:20;8.95;;;3.65;;
51304;SDS011;37392;50.964;6.952;2023-02-28T15:44:48;10.63;;;3.92;;
51304;SDS011;37392;50.964;6.952;2023-02-28T15:47:15;5.43;;;3.08;;
51304;SDS011;37392;50.964;6.952;2023-02-28T15:49:49;8.38;;;4.38;;
51304;SDS011;37392;50.964;6.952;2023-02-28T15:52:22;8.98;;;4.22;;
51304;SDS011;37392;50.964;6.952;2023-02-28T15:54:59;13.48;;;3.85;;
51304;SDS011;37392;50.964;6.952;2023-02-28T15:57:35;7.55;;;3.58;;
51304;SDS011;37392;50.964;6.952;2023-02-28T16:00:03;11.38;;;3.72;;
51304;SDS011;37392;50.964;6.952;2023-02-28T16:02:35;6.43;;;3.40;;
51304;SDS011;37392;50.964;6.952;2023-02-28T16:07:36;6.28;;;4.03;;
51304;SDS011;37392;50.964;6.952;2023-02-28T16:10:06;7.00;;;3.92;;
51304;SDS011;37392;50.964;6.952;2023-02-28T16:12:34;12.77;;;3.42;;
51304;SDS011;37392;50.964;6.952;2023-02-28T16:15:06;7.88;;;3.28;;
51304;SDS011;37392;50.964;6.952;2023-02-28T16:17:35;5.45;;;3.60;;
51304;SDS011;37392;50.964;6.952;2023-02-28T16:22:58;6.32;;;3.20;;
51304;SDS011;37392;50.964;6.952;2023-02-28T16:25:33;5.47;;;2.80;;
51304;SDS011;37392;50.964;6.952;2023-02-28T16:28:08;7.78;;;3.40;;
51304;SDS011;37392;50.964;6.952;2023-02-28T16:30:44;8.90;;;3.50;;
51304;SDS011;37392;50.964;6.952;2023-02-28T16:33:10;6.30;;;3.00;;
51304;SDS011;37392;50.964;6.952;2023-02-28T16:35:35;7.85;;;3.40;;
51304;SDS011;37392;50.964;6.952;2023-02-28T16:38:03;7.78;;;3.53;;
51304;SDS011;37392;50.964;6.952;2023-02-28T16:40:29;6.65;;;3.08;;
51304;SDS011;37392;50.964;6.952;2023-02-28T16:43:04;5.90;;;3.50;;
51304;SDS011;37392;50.964;6.952;2023-02-28T16:45:40;6.72;;;3.90;;
51304;SDS011;37392;50.964;6.952;2023-02-28T16:48:07;6.78;;;3.22;;
51304;SDS011;37392;50.964;6.952;2023-02-28T16:50:39;9.30;;;3.78;;
51304;SDS011;37392;50.964;6.952;2023-02-28T16:53:08;9.05;;;3.85;;
51304;SDS011;37392;50.964;6.952;2023-02-28T16:55:34;9.85;;;3.25;;
51304;SDS011;37392;50.964;6.952;2023-02-28T16:58:00;4.30;;;2.53;;
51304;SDS011;37392;50.964;6.952;2023-02-28T17:00:28;6.35;;;2.75;;
51304;SDS011;37392;50.964;6.952;2023-02-28T17:02:56;5.32;;;2.75;;
51304;SDS011;37392;50.964;6.952;2023-02-28T17:05:24;4.93;;;2.97;;
51304;SDS011;37392;50.964;6.952;2023-02-28T17:07:51;9.52;;;3.97;;
51304;SDS011;37392;50.964;6.952;2023-02-28T17:10:20;6.60;;;3.90;;
51304;SDS011;37392;50.964;6.952;2023-02-28T17:12:49;15.32;;;3.00;;
51304;SDS011;37392;50.964;6.952;2023-02-28T17:15:16;9.57;;;4.00;;
51304;SDS011;37392;50.964;6.952;2023-02-28T17:17:44;5.25;;;3.55;;
51304;SDS011;37392;50.964;6.952;2023-02-28T17:20:15;9.15;;;3.50;;
51304;SDS011;37392;50.964;6.952;2023-02-28T17:22:48;13.05;;;3.40;;
51304;SDS011;37392;50.964;6.952;2023-02-28T17:25:14;6.97;;;2.70;;
51304;SDS011;37392;50.964;6.952;2023-02-28T17:27:41;6.20;;;3.22;;
51304;SDS011;37392;50.964;6.952;2023-02-28T17:30:18;6.32;;;3.63;;
51304;SDS011;37392;50.964;6.952;2023-02-28T17:32:46;14.60;;;3.95;;
51304;SDS011;37392;50.964;6.952;2023-02-28T17:35:12;9.88;;;3.38;;
51304;SDS011;37392;50.964;6.952;2023-02-28T17:37:38;6.30;;;3.53;;
51304;SDS011;37392;50.964;6.952;2023-02-28T17:40:04;5.35;;;3.58;;
51304;SDS011;37392;50.964;6.952;2023-02-28T17:42:31;5.25;;;3.00;;
51304;SDS011;37392;50.964;6.952;2023-02-28T17:44:56;5.10;;;3.08;;
51304;SDS011;37392;50.964;6.952;2023-02-28T17:47:22;9.40;;;3.97;;
51304;SDS011;37392;50.964;6.952;2023-02-28T17:49:48;5.47;;;3.20;;
51304;SDS011;37392;50.964;6.952;2023-02-28T17:52:13;11.63;;;3.72;;
51304;SDS011;37392;50.964;6.952;2023-02-28T17:54:39;9.38;;;4.13;;
51304;SDS011;37392;50.964;6.952;2023-02-28T17:57:05;6.30;;;3.30;;
51304;SDS011;37392;50.964;6.952;2023-02-28T17:59:33;8.93;;;4.38;;
51304;SDS011;37392;50.964;6.952;2023-02-28T18:01:59;10.45;;;4.28;;
51304;SDS011;37392;50.964;6.952;2023-02-28T18:04:26;15.85;;;5.35;;
51304;SDS011;37392;50.964;6.952;2023-02-28T18:06:52;10.10;;;4.28;;
51304;SDS011;37392;50.964;6.952;2023-02-28T18:09:19;6.75;;;4.70;;
51304;SDS011;37392;50.964;6.952;2023-02-28T18:11:47;9.10;;;4.30;;
51304;SDS011;37392;50.964;6.952;2023-02-28T18:14:17;13.82;;;4.85;;
51304;SDS011;37392;50.964;6.952;2023-02-28T18:16:45;17.67;;;6.18;;
51304;SDS011;37392;50.964;6.952;2023-02-28T18:19:12;8.20;;;4.80;;
51304;SDS011;37392;50.964;6.952;2023-02-28T18:21:45;10.18;;;5.55;;
51304;SDS011;37392;50.964;6.952;2023-02-28T18:24:14;11.10;;;6.22;;